createdAt,value
2023-11-24T00:01:42.031Z,101801.63
2023-11-24T00:03:44.616Z,101791.25
2023-11-24T00:05:47.385Z,101791.25
2023-11-24T00:07:49.120Z,101791.25
2023-11-24T00:09:51.539Z,101785.53
2023-11-24T00:11:53.175Z,101783.00
2023-11-24T00:13:55.140Z,101784.66
2023-11-24T00:15:57.037Z,101770.91
2023-11-24T00:17:58.742Z,101767.31
2023-11-24T00:20:00.353Z,101765.59
2023-11-24T00:22:02.121Z,101766.47
2023-11-24T00:24:05.894Z,101766.25
2023-11-24T00:26:08.569Z,101767.94
2023-11-24T00:28:10.497Z,101759.44
2023-11-24T00:30:12.445Z,101752.28
2023-11-24T00:32:15.425Z,101749.53
2023-11-24T00:34:17.177Z,101752.06
2023-11-24T00:36:18.838Z,101749.72
2023-11-24T00:38:20.679Z,101745.91
2023-11-24T00:40:22.253Z,101743.34
2023-11-24T00:42:24.200Z,101744.22
2023-11-24T00:44:25.822Z,101734.25
2023-11-24T00:46:27.654Z,101728.75
2023-11-24T00:48:29.581Z,101733.00
2023-11-24T00:50:31.268Z,101742.09
2023-11-24T00:52:33.101Z,101733.63
2023-11-24T00:54:34.796Z,101736.16
2023-11-24T00:56:37.065Z,101732.78
2023-11-24T00:58:39.022Z,101737.41
2023-11-24T01:00:40.626Z,101731.28
2023-11-24T01:02:42.207Z,101726.00
2023-11-24T01:04:43.920Z,101728.13
2023-11-24T01:06:45.507Z,101734.47
2023-11-24T01:08:47.072Z,101729.81
2023-11-24T01:10:48.592Z,101729.59
2023-11-24T01:12:50.137Z,101734.88
2023-11-24T01:14:51.961Z,101747.38
2023-11-24T01:16:54.575Z,101736.38
2023-11-24T01:18:57.443Z,101739.13
2023-11-24T01:20:59.582Z,101730.84
2023-11-24T01:23:01.544Z,101728.31
2023-11-24T01:25:03.442Z,101727.28
2023-11-24T01:27:05.229Z,101722.81
2023-11-24T01:29:07.354Z,101719.22
2023-11-24T01:31:09.474Z,101714.56
2023-11-24T01:33:11.351Z,101717.94
2023-11-24T01:35:13.156Z,101713.50
2023-11-24T01:37:14.883Z,101705.63
2023-11-24T01:39:17.146Z,101699.06
2023-11-24T01:41:19.235Z,101696.31
2023-11-24T01:43:20.801Z,101697.38
2023-11-24T01:45:22.536Z,101707.34
2023-11-24T01:47:25.085Z,101697.16
2023-11-24T01:49:28.602Z,101692.69
2023-11-24T01:51:30.499Z,101687.19
2023-11-24T01:53:32.197Z,101689.34
2023-11-24T01:55:34.016Z,101689.94
2023-11-24T01:57:36.134Z,101699.06
2023-11-24T01:59:39.397Z,101694.19
2023-11-24T02:01:41.640Z,101700.31
2023-11-24T02:03:43.471Z,101702.00
2023-11-24T02:05:45.082Z,101700.16
2023-11-24T02:07:46.867Z,101689.13
2023-11-24T02:09:48.537Z,101691.00
2023-11-24T02:11:50.100Z,101693.75
2023-11-24T02:15:59.253Z,101690.38
2023-11-24T02:18:00.984Z,101691.44
2023-11-24T02:20:07.116Z,101678.50
2023-11-24T02:22:09.288Z,101676.38
2023-11-24T02:24:10.901Z,101668.97
2023-11-24T02:26:12.474Z,101673.44
2023-11-24T02:28:14.075Z,101667.50
2023-11-24T02:30:16.585Z,101659.47
2023-11-24T02:32:19.619Z,101656.69
2023-11-24T02:34:21.307Z,101646.94
2023-11-24T02:36:28.415Z,101636.97
2023-11-24T02:38:30.038Z,101636.97
2023-11-24T02:40:33.856Z,101627.03
2023-11-24T02:42:38.825Z,101622.56
2023-11-24T02:44:40.477Z,101624.28
2023-11-24T02:46:42.120Z,101616.63
2023-11-24T02:48:45.106Z,101610.94
2023-11-24T02:50:46.833Z,101603.31
2023-11-24T02:52:48.425Z,101598.63
2023-11-24T02:54:53.349Z,101604.97
2023-11-24T02:56:54.957Z,101599.69
2023-11-24T02:58:56.519Z,101594.41
2023-11-24T03:00:58.128Z,101597.34
2023-11-24T03:03:02.904Z,101593.75
2023-11-24T03:05:05.264Z,101602.03
2023-11-24T03:07:06.897Z,101593.56
2023-11-24T03:09:10.426Z,101589.53
2023-11-24T03:11:12.178Z,101581.88
2023-11-24T03:13:14.442Z,101584.66
2023-11-24T03:15:17.423Z,101588.22
2023-11-24T03:17:19.080Z,101577.22
2023-11-24T03:19:21.924Z,101566.19
2023-11-24T03:21:23.521Z,101572.78
2023-11-24T03:23:25.126Z,101562.81
2023-11-24T03:25:27.088Z,101570.25
2023-11-24T03:27:28.744Z,101566.41
2023-11-24T03:29:30.386Z,101565.59
2023-11-24T03:31:32.183Z,101559.03
2023-11-24T03:33:34.466Z,101549.44
2023-11-24T03:35:36.229Z,101548.38
2023-11-24T03:37:38.775Z,101540.97
2023-11-24T03:39:40.369Z,101544.59
2023-11-24T03:41:42.343Z,101559.41
2023-11-24T03:43:43.922Z,101548.63
2023-11-24T03:45:45.484Z,101534.00
2023-11-24T03:47:47.289Z,101543.94
2023-11-24T03:49:48.886Z,101540.34
2023-11-24T03:51:50.762Z,101532.91
2023-11-24T03:53:52.390Z,101541.19
2023-11-24T03:55:53.933Z,101531.03
2023-11-24T03:57:55.719Z,101537.97
2023-11-24T03:59:57.354Z,101532.25
2023-11-24T04:01:59.453Z,101521.00
2023-11-24T04:04:01.508Z,101511.69
2023-11-24T04:06:03.837Z,101508.31
2023-11-24T04:08:05.450Z,101517.66
2023-11-24T04:10:10.909Z,101510.44
2023-11-24T04:12:12.569Z,101521.44
2023-11-24T04:14:14.137Z,101529.72
2023-11-24T04:16:16.105Z,101526.97
2023-11-24T04:18:17.782Z,101529.50
2023-11-24T04:20:19.424Z,101522.09
2023-11-24T04:22:21.023Z,101515.28
2023-11-24T04:24:24.459Z,101523.53
2023-11-24T04:26:26.119Z,101518.03
2023-11-24T04:28:27.895Z,101517.81
2023-11-24T04:30:29.604Z,101522.47
2023-11-24T04:32:31.958Z,101519.72
2023-11-24T04:34:33.678Z,101514.44
2023-11-24T04:36:35.435Z,101520.78
2023-11-24T04:38:37.161Z,101518.25
2023-11-24T04:40:38.863Z,101509.16
2023-11-24T04:42:40.510Z,101515.28
2023-11-24T04:44:42.359Z,101507.00
2023-11-24T04:46:44.010Z,101504.69
2023-11-24T04:48:46.360Z,101500.00
2023-11-24T04:50:48.147Z,101506.34
2023-11-24T04:52:49.842Z,101496.63
2023-11-24T04:54:51.511Z,101493.25
2023-11-24T04:56:55.025Z,101487.72
2023-11-24T04:58:56.582Z,101478.84
2023-11-24T05:00:58.638Z,101473.34
2023-11-24T05:03:00.285Z,101475.88
2023-11-24T05:05:01.914Z,101478.63
2023-11-24T05:07:04.617Z,101478.41
2023-11-24T05:09:06.330Z,101476.25
2023-11-24T05:11:08.111Z,101468.00
2023-11-24T05:13:09.958Z,101466.31
2023-11-24T05:15:12.085Z,101467.38
2023-11-24T05:17:13.941Z,101477.56
2023-11-24T05:19:16.128Z,101470.13
2023-11-24T05:21:17.844Z,101465.69
2023-11-24T05:23:20.768Z,101458.50
2023-11-24T05:25:23.405Z,101460.41
2023-11-24T05:27:25.367Z,101465.69
2023-11-24T05:29:27.010Z,101463.56
2023-11-24T05:31:28.651Z,101454.44
2023-11-24T05:33:31.273Z,101461.44
2023-11-24T05:35:33.188Z,101463.13
2023-11-24T05:37:34.738Z,101447.41
2023-11-24T05:39:38.360Z,101458.44
2023-11-24T05:41:41.026Z,101456.75
2023-11-24T05:43:42.686Z,101449.56
2023-11-24T05:45:44.312Z,101448.72
2023-11-24T05:47:45.904Z,101443.19
2023-11-24T05:49:49.480Z,101443.19
2023-11-24T05:51:51.376Z,101438.56
2023-11-24T05:53:53.881Z,101444.66
2023-11-24T05:55:55.690Z,101443.16
2023-11-24T05:57:57.707Z,101432.97
2023-11-24T05:59:59.450Z,101432.97
2023-11-24T06:02:01.130Z,101429.16
2023-11-24T06:04:03.824Z,101425.56
2023-11-24T06:06:05.648Z,101430.22
2023-11-24T06:08:07.478Z,101442.56
2023-11-24T06:10:10.812Z,101442.75
2023-11-24T06:12:12.511Z,101438.09
2023-11-24T06:14:14.293Z,101438.94
2023-11-24T06:16:16.063Z,101453.34
2023-11-24T06:18:17.969Z,101455.66
2023-11-24T06:20:19.652Z,101460.06
2023-11-24T06:22:21.679Z,101460.94
2023-11-24T06:24:23.236Z,101465.59
2023-11-24T06:26:25.076Z,101458.41
2023-11-24T06:28:26.793Z,101459.47
2023-11-24T06:30:28.456Z,101458.00
2023-11-24T06:32:32.056Z,101464.38
2023-11-24T06:34:33.750Z,101465.44
2023-11-24T06:36:36.265Z,101468.19
2023-11-24T06:38:37.965Z,101464.38
2023-11-24T06:40:39.491Z,101468.78
2023-11-24T06:42:41.837Z,101466.91
2023-11-24T06:44:43.624Z,101462.00
2023-11-24T06:46:45.221Z,101457.31
2023-11-24T06:48:47.102Z,101455.66
2023-11-24T06:50:48.641Z,101452.25
2023-11-24T06:52:50.219Z,101443.38
2023-11-24T06:54:51.947Z,101454.41
2023-11-24T06:56:53.462Z,101448.06
2023-11-24T06:58:56.090Z,101452.94
2023-11-24T07:00:57.895Z,101453.75
2023-11-24T07:02:59.749Z,101450.81
2023-11-24T07:05:01.342Z,101445.09
2023-11-24T07:07:03.062Z,101451.44
2023-11-24T07:09:04.981Z,101453.13
2023-11-24T07:11:06.578Z,101455.88
2023-11-24T07:13:08.340Z,101446.13
2023-11-24T07:15:11.497Z,101444.44
2023-11-24T07:17:13.994Z,101448.25
2023-11-24T07:19:17.792Z,101447.41
2023-11-24T07:21:19.569Z,101451.00
2023-11-24T07:23:21.311Z,101453.56
2023-11-24T07:25:22.940Z,101451.66
2023-11-24T07:27:25.123Z,101463.72
2023-11-24T07:29:26.720Z,101462.66
2023-11-24T07:31:29.424Z,101469.66
2023-11-24T07:33:34.517Z,101467.72
2023-11-24T07:35:36.178Z,101477.91
2023-11-24T07:37:38.780Z,101468.41
2023-11-24T07:39:42.384Z,101475.63
2023-11-24T07:41:45.657Z,101473.06
2023-11-24T07:43:47.368Z,101467.75
2023-11-24T07:45:52.069Z,101465.88
2023-11-24T07:47:54.149Z,101473.06
2023-11-24T07:49:55.835Z,101479.19
2023-11-24T07:51:57.448Z,101468.19
2023-11-24T07:53:59.067Z,101473.69
2023-11-24T07:56:01.179Z,101466.25
2023-11-24T07:58:02.706Z,101467.13
2023-11-24T08:00:06.604Z,101469.00
2023-11-24T08:02:08.447Z,101462.03
2023-11-24T08:04:10.141Z,101469.25
2023-11-24T08:06:12.609Z,101469.25
2023-11-24T08:08:14.763Z,101473.06
2023-11-24T08:10:16.483Z,101482.41
2023-11-24T08:12:18.324Z,101486.81
2023-11-24T08:14:24.673Z,101470.28
2023-11-24T08:16:26.748Z,101472.00
2023-11-24T08:18:28.993Z,101469.25
2023-11-24T08:20:30.642Z,101481.31
2023-11-24T08:22:32.263Z,101472.22
2023-11-24T08:24:35.096Z,101479.66
2023-11-24T08:26:37.413Z,101473.72
2023-11-24T08:28:43.802Z,101475.44
2023-11-24T08:30:45.907Z,101469.91
2023-11-24T08:32:49.304Z,101464.03
2023-11-24T08:34:50.907Z,101483.09
2023-11-24T08:36:52.601Z,101474.59
2023-11-24T08:38:54.394Z,101464.63
2023-11-24T08:40:56.067Z,101471.19
2023-11-24T08:42:58.415Z,101463.78
2023-11-24T08:45:00.355Z,101464.03
2023-11-24T08:47:01.937Z,101467.59
2023-11-24T08:49:03.806Z,101482.84
2023-11-24T08:51:05.760Z,101463.34
2023-11-24T08:53:07.970Z,101468.41
2023-11-24T08:55:11.121Z,101465.81
2023-11-24T08:57:12.939Z,101460.94
2023-11-24T08:59:14.959Z,101452.44
2023-11-24T09:01:16.589Z,101472.34
2023-11-24T09:03:19.432Z,101467.88
2023-11-24T09:05:21.037Z,101468.97
2023-11-24T09:07:22.663Z,101460.47
2023-11-24T09:09:24.445Z,101463.84
2023-11-24T09:11:27.406Z,101461.69
2023-11-24T09:13:28.978Z,101451.31
2023-11-24T09:15:30.628Z,101448.94
2023-11-24T09:17:35.237Z,101450.19
2023-11-24T09:19:37.084Z,101459.06
2023-11-24T09:21:38.833Z,101457.16
2023-11-24T09:23:41.043Z,101450.34
2023-11-24T09:25:42.707Z,101453.72
2023-11-24T09:27:44.497Z,101444.38
2023-11-24T09:29:46.377Z,101440.31
2023-11-24T09:31:48.315Z,101448.34
2023-11-24T09:33:49.969Z,101441.56
2023-11-24T09:35:51.625Z,101449.84
2023-11-24T09:37:53.768Z,101448.13
2023-11-24T09:39:55.388Z,101445.16
2023-11-24T09:41:57.733Z,101448.31
2023-11-24T09:44:01.075Z,101446.41
2023-11-24T09:46:02.834Z,101457.22
2023-11-24T09:48:06.959Z,101452.53
2023-11-24T09:50:10.756Z,101454.47
2023-11-24T09:52:13.909Z,101445.31
2023-11-24T09:54:18.628Z,101461.44
2023-11-24T09:56:20.319Z,101459.53
2023-11-24T09:58:23.188Z,101461.22
2023-11-24T10:00:26.937Z,101449.97
2023-11-24T10:02:29.707Z,101444.22
2023-11-24T10:04:31.390Z,101437.00
2023-11-24T10:06:40.195Z,101427.66
2023-11-24T10:08:41.794Z,101428.50
2023-11-24T10:10:43.547Z,101421.06
2023-11-24T10:12:45.240Z,101429.34
2023-11-24T10:14:48.357Z,101430.44
2023-11-24T10:18:57.429Z,101423.81
2023-11-24T10:21:00.960Z,101434.00
2023-11-24T10:23:04.911Z,101434.00
2023-11-24T10:25:20.450Z,101422.16
2023-11-24T10:27:23.806Z,101423.00
2023-11-24T10:29:28.620Z,101418.06
2023-11-24T10:31:31.973Z,101417.00
2023-11-24T10:33:35.999Z,101416.78
2023-11-24T10:35:37.968Z,101417.84
2023-11-24T10:37:41.407Z,101418.72
2023-11-24T10:39:45.603Z,101415.31
2023-11-24T10:41:48.370Z,101399.41
2023-11-24T10:43:51.552Z,101397.25
2023-11-24T10:45:54.988Z,101387.91
2023-11-24T10:48:12.139Z,101385.16
2023-11-24T10:50:17.519Z,101379.41
2023-11-24T10:52:30.973Z,101377.47
2023-11-24T10:54:36.333Z,101371.38
2023-11-24T10:56:40.737Z,101371.38
2023-11-24T10:58:48.011Z,101369.44
2023-11-24T11:00:50.793Z,101365.63
2023-11-24T11:02:56.219Z,101356.25
2023-11-24T11:05:14.527Z,101370.91
2023-11-24T11:07:28.762Z,101363.47
2023-11-24T11:09:31.588Z,101358.78
2023-11-24T11:11:52.435Z,101357.13
2023-11-24T11:13:58.003Z,101345.63
2023-11-24T11:15:59.770Z,101363.81
2023-11-24T11:18:12.462Z,101353.13
2023-11-24T11:20:16.109Z,101339.34
2023-11-24T11:22:18.450Z,101335.75
2023-11-24T11:24:25.813Z,101335.50
2023-11-24T11:26:49.128Z,101337.41
2023-11-24T11:28:58.610Z,101321.09
2023-11-24T11:31:29.032Z,101315.81
2023-11-24T11:33:31.890Z,101318.81
2023-11-24T11:35:36.709Z,101318.56
2023-11-24T11:37:38.365Z,101328.53
2023-11-24T11:39:45.562Z,101323.50
2023-11-24T11:41:48.294Z,101323.25
2023-11-24T11:43:54.277Z,101319.66
2023-11-24T11:46:00.888Z,101324.31
2023-11-24T11:50:19.134Z,101320.72
2023-11-24T11:52:23.026Z,101317.97
2023-11-24T11:54:25.727Z,101322.66
2023-11-24T11:56:27.906Z,101314.16
2023-11-24T11:58:30.448Z,101323.13
2023-11-24T12:00:32.095Z,101314.38
2023-11-24T12:04:40.865Z,101316.28
2023-11-24T12:06:42.574Z,101304.88
2023-11-24T12:08:45.323Z,101300.28
2023-11-24T12:10:47.933Z,101299.66
2023-11-24T12:12:49.903Z,101307.16
2023-11-24T12:14:55.260Z,101299.19
2023-11-24T12:16:57.753Z,101309.66
2023-11-24T12:19:05.583Z,101298.50
2023-11-24T12:21:08.267Z,101302.56
2023-11-24T12:23:10.429Z,101291.84
2023-11-24T12:25:14.372Z,101290.47
2023-11-24T12:27:16.382Z,101288.16
2023-11-24T12:29:17.929Z,101292.44
2023-11-24T12:31:19.613Z,101286.78
2023-11-24T12:33:25.678Z,101286.13
2023-11-24T12:35:27.785Z,101280.47
2023-11-24T12:37:30.067Z,101276.91
2023-11-24T12:39:31.887Z,101273.16
2023-11-24T12:41:33.628Z,101279.34
2023-11-24T12:43:35.137Z,101267.09
2023-11-24T12:45:36.969Z,101266.47
2023-11-24T12:50:02.717Z,101261.72
2023-11-24T12:52:06.703Z,101252.91
2023-11-24T12:54:08.474Z,101262.66
2023-11-24T12:56:10.536Z,101262.28
2023-11-24T12:58:12.520Z,101270.75
2023-11-24T13:00:16.021Z,101265.47
2023-11-24T13:02:20.976Z,101258.06
2023-11-24T13:04:24.892Z,101266.47
2023-11-24T13:06:26.609Z,101269.66
2023-11-24T13:08:28.178Z,101272.25
2023-11-24T13:10:31.399Z,101273.34
2023-11-24T13:12:36.401Z,101275.69
2023-11-24T13:14:38.205Z,101277.59
2023-11-24T13:16:40.221Z,101268.50
2023-11-24T13:18:41.914Z,101272.31
2023-11-24T13:20:43.737Z,101264.75
2023-11-24T13:22:45.393Z,101271.50
2023-11-24T13:24:50.272Z,101272.81
2023-11-24T13:26:53.643Z,101273.88
2023-11-24T13:28:55.325Z,101267.78
2023-11-24T13:30:57.378Z,101269.44
2023-11-24T13:33:00.344Z,101269.44
2023-11-24T13:35:01.990Z,101269.44
2023-11-24T13:37:03.730Z,101264.38
2023-11-24T13:39:07.333Z,101265.66
2023-11-24T13:41:09.428Z,101269.50
2023-11-24T13:43:11.571Z,101268.63
2023-11-24T13:45:13.732Z,101273.97
2023-11-24T13:47:15.378Z,101274.19
2023-11-24T13:49:20.170Z,101276.31
2023-11-24T13:51:21.829Z,101269.97
2023-11-24T13:53:23.619Z,101266.59
2023-11-24T13:55:34.203Z,101272.53
2023-11-24T13:57:36.793Z,101271.69
2023-11-24T13:59:38.638Z,101277.41
2023-11-24T14:01:41.419Z,101280.16
2023-11-24T14:03:44.171Z,101279.97
2023-11-24T14:05:45.868Z,101275.53
2023-11-24T14:07:47.575Z,101269.19
2023-11-24T14:09:49.882Z,101264.97
2023-11-24T14:11:52.819Z,101272.00
2023-11-24T14:13:55.590Z,101265.00
2023-11-24T14:15:57.297Z,101266.25
2023-11-24T14:17:59.103Z,101272.19
2023-11-24T14:20:02.157Z,101260.38
2023-11-24T14:22:05.836Z,101261.91
2023-11-24T14:24:08.188Z,101269.09
2023-11-24T14:26:09.834Z,101261.28
2023-11-24T14:28:11.544Z,101265.13
2023-11-24T14:30:14.363Z,101269.97
2023-11-24T14:32:16.149Z,101279.28
2023-11-24T14:34:20.226Z,101280.13
2023-11-24T14:36:22.155Z,101284.34
2023-11-24T14:38:23.820Z,101283.94
2023-11-24T14:40:25.534Z,101286.69
2023-11-24T14:42:29.041Z,101297.28
2023-11-24T14:44:30.685Z,101303.81
2023-11-24T14:46:32.496Z,101297.50
2023-11-24T14:48:34.790Z,101300.25
2023-11-24T14:50:37.177Z,101301.50
2023-11-24T14:52:38.969Z,101294.97
2023-11-24T14:54:40.646Z,101300.25
2023-11-24T14:56:44.230Z,101293.91
2023-11-24T14:58:49.348Z,101293.03
2023-11-24T15:00:51.040Z,101287.53
2023-11-24T15:02:52.745Z,101299.78
2023-11-24T15:04:54.617Z,101301.25
2023-11-24T15:06:56.927Z,101307.78
2023-11-24T15:09:04.622Z,101305.22
2023-11-24T15:11:07.309Z,101310.06
2023-11-24T15:13:09.889Z,101311.09
2023-11-24T15:15:11.932Z,101306.25
2023-11-24T15:17:17.754Z,101307.28
2023-11-24T15:19:22.201Z,101301.34
2023-11-24T15:21:31.541Z,101304.53
2023-11-24T15:23:33.246Z,101304.31
2023-11-24T15:25:38.731Z,101309.38
2023-11-24T15:27:40.364Z,101310.03
2023-11-24T15:29:42.244Z,101310.44
2023-11-24T15:31:46.248Z,101310.22
2023-11-24T15:33:49.477Z,101315.25
2023-11-24T15:35:51.589Z,101312.31
2023-11-24T15:37:53.399Z,101314.84
2023-11-24T15:39:59.749Z,101315.47
2023-11-24T15:42:03.363Z,101311.84
2023-11-24T15:44:07.893Z,101324.78
2023-11-24T15:46:16.381Z,101319.28
2023-11-24T15:48:18.723Z,101313.59
2023-11-24T15:50:27.980Z,101316.13
2023-11-24T15:52:29.651Z,101320.31
2023-11-24T15:54:31.431Z,101323.28
2023-11-24T15:56:33.456Z,101329.22
2023-11-24T15:58:36.028Z,101339.78
2023-11-24T16:00:41.074Z,101330.09
2023-11-24T16:02:43.590Z,101330.50
2023-11-24T16:04:47.207Z,101340.50
2023-11-24T16:06:55.465Z,101343.03
2023-11-24T16:08:59.783Z,101344.72
2023-11-24T16:11:11.292Z,101343.22
2023-11-24T16:13:14.425Z,101342.38
2023-11-24T16:15:18.902Z,101343.66
2023-11-24T16:17:20.580Z,101354.25
2023-11-24T16:19:22.417Z,101355.06
2023-11-24T16:21:25.162Z,101355.06
2023-11-24T16:23:27.578Z,101351.69
2023-11-24T16:25:29.315Z,101353.81
2023-11-24T16:27:31.574Z,101346.84
2023-11-24T16:29:33.160Z,101372.81
2023-11-24T16:31:34.909Z,101359.31
2023-11-24T16:33:38.674Z,101373.44
2023-11-24T16:35:44.038Z,101376.63
2023-11-24T16:37:45.728Z,101378.31
2023-11-24T16:39:47.321Z,101380.25
2023-11-24T16:41:50.753Z,101378.53
2023-11-24T16:43:52.451Z,101377.94
2023-11-24T16:45:54.035Z,101378.13
2023-11-24T16:47:55.639Z,101381.28
2023-11-24T16:49:58.203Z,101386.59
2023-11-24T16:52:00.968Z,101383.25
2023-11-24T16:54:04.054Z,101391.03
2023-11-24T16:56:06.136Z,101386.41
2023-11-24T16:58:11.009Z,101390.00
2023-11-24T17:00:16.311Z,101394.66
2023-11-24T17:02:18.169Z,101392.97
2023-11-24T17:04:19.900Z,101394.66
2023-11-24T17:06:21.563Z,101401.38
2023-11-24T17:08:24.847Z,101403.91
2023-11-24T17:10:26.643Z,101399.28
2023-11-24T17:12:28.560Z,101406.47
2023-11-24T17:14:30.804Z,101409.84
2023-11-24T17:16:33.466Z,101405.22
2023-11-24T17:18:37.395Z,101415.56
2023-11-24T17:20:40.561Z,101428.69
2023-11-24T17:22:42.236Z,101424.88
2023-11-24T17:24:44.089Z,101409.91
2023-11-24T17:26:45.637Z,101420.44
2023-11-24T17:28:52.699Z,101428.50
2023-11-24T17:30:54.433Z,101437.16
2023-11-24T17:32:56.263Z,101433.56
2023-11-24T17:34:58.879Z,101430.81
2023-11-24T17:37:00.695Z,101438.44
2023-11-24T17:39:05.010Z,101444.56
2023-11-24T17:41:07.038Z,101442.22
2023-11-24T17:43:08.673Z,101446.03
2023-11-24T17:45:17.175Z,101445.19
2023-11-24T17:47:19.015Z,101450.47
2023-11-24T17:49:20.654Z,101442.22
2023-11-24T17:51:26.434Z,101434.81
2023-11-24T17:53:30.350Z,101440.94
2023-11-24T17:55:32.326Z,101437.97
2023-11-24T17:57:34.118Z,101440.09
2023-11-24T17:59:35.806Z,101443.03
2023-11-24T18:01:38.496Z,101432.91
2023-11-24T18:03:40.331Z,101440.72
2023-11-24T18:05:43.159Z,101436.72
2023-11-24T18:07:44.922Z,101449.63
2023-11-24T18:09:46.550Z,101440.50
2023-11-24T18:11:50.545Z,101436.94
2023-11-24T18:13:52.524Z,101440.50
2023-11-24T18:15:54.519Z,101439.69
2023-11-24T18:17:56.516Z,101447.72
2023-11-24T18:19:58.392Z,101447.28
2023-11-24T18:22:00.228Z,101445.81
2023-11-24T18:24:01.849Z,101444.97
2023-11-24T18:26:03.536Z,101441.38
2023-11-24T18:28:05.596Z,101444.97
2023-11-24T18:30:11.187Z,101444.09
2023-11-24T18:32:13.005Z,101444.09
2023-11-24T18:34:15.657Z,101447.94
2023-11-24T18:36:17.266Z,101452.38
2023-11-24T18:38:18.886Z,101446.47
2023-11-24T18:40:21.326Z,101459.97
2023-11-24T18:42:24.185Z,101463.97
2023-11-24T18:44:27.265Z,101462.28
2023-11-24T18:46:28.832Z,101459.13
2023-11-24T18:48:30.721Z,101476.22
2023-11-24T18:50:32.438Z,101465.03
2023-11-24T18:52:34.461Z,101463.34
2023-11-24T18:58:50.115Z,101466.94
2023-11-24T19:00:51.840Z,101463.97
2023-11-24T19:02:54.247Z,101461.66
2023-11-24T19:04:56.861Z,101461.03
2023-11-24T19:06:59.395Z,101471.81
2023-11-24T19:09:00.952Z,101466.09
2023-11-24T19:11:05.918Z,101469.03
2023-11-24T19:13:07.506Z,101476.25
2023-11-24T19:15:11.444Z,101479.00
2023-11-24T19:17:14.123Z,101476.88
2023-11-24T19:19:16.009Z,101479.00
2023-11-24T19:21:18.268Z,101479.41
2023-11-24T19:23:22.222Z,101480.47
2023-11-24T19:25:23.900Z,101485.34
2023-11-24T19:27:25.911Z,101480.88
2023-11-24T19:29:27.484Z,101483.63
2023-11-24T19:31:29.375Z,101487.00
2023-11-24T19:33:31.091Z,101474.97
2023-11-24T19:35:33.289Z,101479.63
2023-11-24T19:37:34.866Z,101474.97
2023-11-24T19:39:38.106Z,101471.38
2023-11-24T19:41:40.138Z,101473.28
2023-11-24T19:43:43.839Z,101470.34
2023-11-24T19:45:45.768Z,101487.88
2023-11-24T19:47:47.545Z,101483.00
2023-11-24T19:49:50.849Z,101484.25
2023-11-24T19:51:52.455Z,101483.44
2023-11-24T19:53:54.638Z,101480.28
2023-11-24T19:55:56.272Z,101494.84
2023-11-24T19:57:57.896Z,101496.75
2023-11-24T19:59:59.685Z,101485.34
2023-11-24T20:02:03.889Z,101494.41
2023-11-24T20:04:06.144Z,101491.03
2023-11-24T20:06:08.073Z,101488.72
2023-11-24T20:08:10.252Z,101501.38
2023-11-24T20:10:13.299Z,101495.91
2023-11-24T20:12:14.958Z,101499.28
2023-11-24T20:14:18.372Z,101491.66
2023-11-24T20:16:20.121Z,101492.72
2023-11-24T20:18:21.798Z,101500.13
2023-11-24T20:20:23.533Z,101497.56
2023-11-24T20:22:25.224Z,101498.41
2023-11-24T20:24:27.203Z,101493.06
2023-11-24T20:26:28.840Z,101503.38
2023-11-24T20:28:30.498Z,101500.63
2023-11-24T20:30:32.529Z,101494.06
2023-11-24T20:32:34.823Z,101496.56
2023-11-24T20:34:36.637Z,101495.53
2023-11-24T20:36:38.312Z,101507.31
2023-11-24T20:38:40.385Z,101492.94
2023-11-24T20:40:42.181Z,101500.28
2023-11-24T20:42:44.216Z,101502.38
2023-11-24T20:44:45.866Z,101505.13
2023-11-24T20:46:49.703Z,101503.03
2023-11-24T20:48:51.375Z,101507.00
2023-11-24T20:50:52.981Z,101498.97
2023-11-24T20:52:54.650Z,101499.34
2023-11-24T20:54:56.741Z,101504.63
2023-11-24T20:56:59.776Z,101499.34
2023-11-24T20:59:01.456Z,101508.19
2023-11-24T21:01:03.223Z,101508.19
2023-11-24T21:03:05.024Z,101505.47
2023-11-24T21:05:08.792Z,101502.91
2023-11-24T21:07:11.615Z,101501.88
2023-11-24T21:09:13.481Z,101486.66
2023-11-24T21:11:16.066Z,101491.13
2023-11-24T21:13:22.600Z,101495.31
2023-11-24T21:15:24.377Z,101495.91
2023-11-24T21:17:26.035Z,101488.97
2023-11-24T21:19:27.705Z,101489.81
2023-11-24T21:21:29.402Z,101486.25
2023-11-24T21:23:31.046Z,101486.25
2023-11-24T21:25:32.714Z,101488.97
2023-11-24T21:27:34.317Z,101492.34
2023-11-24T21:29:35.965Z,101493.16
2023-11-24T21:31:38.609Z,101491.72
2023-11-24T21:33:40.542Z,101489.19
2023-11-24T21:35:42.164Z,101504.84
2023-11-24T21:37:43.816Z,101506.16
2023-11-24T21:39:46.688Z,101508.50
2023-11-24T21:41:49.195Z,101502.41
2023-11-24T21:43:51.100Z,101502.19
2023-11-24T21:45:52.927Z,101508.72
2023-11-24T21:47:56.282Z,101503.28
2023-11-24T21:49:58.511Z,101494.22
2023-11-24T21:52:00.255Z,101512.59
2023-11-24T21:54:01.955Z,101507.53
2023-11-24T21:56:05.317Z,101496.34
2023-11-24T21:58:06.903Z,101505.88
2023-11-24T22:00:10.507Z,101500.59
2023-11-24T22:02:12.330Z,101501.06
2023-11-24T22:04:14.099Z,101504.22
2023-11-24T22:06:22.443Z,101500.22
2023-11-24T22:08:25.129Z,101501.69
2023-11-24T22:10:27.101Z,101501.47
2023-11-24T22:12:29.569Z,101509.50
2023-11-24T22:14:31.191Z,101508.06
2023-11-24T22:16:33.038Z,101508.06
2023-11-24T22:18:35.324Z,101506.13
2023-11-24T22:20:36.925Z,101504.47
2023-11-24T22:22:39.182Z,101517.13
2023-11-24T22:24:41.280Z,101519.44
2023-11-24T22:26:43.179Z,101517.13
2023-11-24T22:28:45.139Z,101515.41
2023-11-24T22:30:46.934Z,101517.53
2023-11-24T22:32:48.650Z,101517.53
2023-11-24T22:34:50.776Z,101513.28
2023-11-24T22:36:52.354Z,101505.47
2023-11-24T22:38:54.060Z,101512.25
2023-11-24T22:40:55.677Z,101500.59
2023-11-24T22:42:59.016Z,101503.34
2023-11-24T22:45:05.082Z,101506.31
2023-11-24T22:47:06.722Z,101498.28
2023-11-24T22:49:09.005Z,101498.47
2023-11-24T22:51:17.757Z,101508.81
2023-11-24T22:53:19.713Z,101505.22
2023-11-24T22:55:21.305Z,101501.44
2023-11-24T22:57:22.934Z,101507.13
2023-11-24T22:59:24.663Z,101503.34
2023-11-24T23:01:28.166Z,101502.94
2023-11-24T23:03:29.910Z,101502.06
2023-11-24T23:05:31.652Z,101497.44
2023-11-24T23:07:33.206Z,101503.13
2023-11-24T23:09:34.862Z,101506.72
2023-11-24T23:11:37.421Z,101516.84
2023-11-24T23:13:44.029Z,101506.91
2023-11-24T23:15:45.622Z,101509.66
2023-11-24T23:17:47.960Z,101509.66
2023-11-24T23:19:49.591Z,101506.91
2023-11-24T23:21:51.380Z,101512.19
2023-11-24T23:23:53.205Z,101502.06
2023-11-24T23:25:54.852Z,101505.47
2023-11-24T23:27:56.808Z,101506.31
2023-11-24T23:29:58.351Z,101510.28
2023-11-24T23:32:00.005Z,101502.06
2023-11-24T23:34:01.726Z,101514.09
2023-11-24T23:36:04.454Z,101509.66